createdAt,value
2023-03-15T00:01:54.595Z,13.63
2023-03-15T00:04:24.963Z,15.77
2023-03-15T00:06:54.676Z,16.27
2023-03-15T00:09:24.320Z,15.50
2023-03-15T00:11:54.665Z,17.20
2023-03-15T00:14:23.535Z,16.10
2023-03-15T00:16:51.851Z,15.97
2023-03-15T00:19:20.277Z,16.23
2023-03-15T00:21:48.670Z,14.60
2023-03-15T00:24:18.360Z,14.33
2023-03-15T00:26:46.831Z,13.40
2023-03-15T00:29:15.406Z,13.87
2023-03-15T00:31:45.863Z,13.17
2023-03-15T00:34:15.174Z,16.07
2023-03-15T00:36:44.247Z,16.97
2023-03-15T00:39:14.794Z,13.03
2023-03-15T00:41:46.896Z,16.00
2023-03-15T00:44:16.005Z,13.03
2023-03-15T00:46:44.393Z,14.23
2023-03-15T00:49:13.058Z,13.73
2023-03-15T00:51:41.528Z,13.33
2023-03-15T00:54:13.889Z,12.70
2023-03-15T00:56:42.401Z,13.20
2023-03-15T00:59:12.235Z,13.77
2023-03-15T01:01:44.529Z,12.20
2023-03-15T01:04:13.223Z,11.07
2023-03-15T01:06:42.435Z,12.20
2023-03-15T01:09:11.083Z,13.90
2023-03-15T01:11:40.263Z,10.43
2023-03-15T01:14:09.639Z,13.77
2023-03-15T01:16:40.163Z,12.13
2023-03-15T01:19:11.453Z,10.37
2023-03-15T01:21:40.051Z,10.80
2023-03-15T01:24:12.852Z,10.37
2023-03-15T01:26:41.778Z,13.13
2023-03-15T01:29:13.592Z,11.63
2023-03-15T01:31:43.436Z,11.87
2023-03-15T01:34:12.245Z,9.70
2023-03-15T01:36:40.553Z,11.93
2023-03-15T01:39:08.886Z,10.10
2023-03-15T01:41:42.872Z,11.57
2023-03-15T01:44:15.722Z,10.73
2023-03-15T01:46:47.784Z,10.80
2023-03-15T01:49:27.079Z,8.37
2023-03-15T01:52:02.511Z,11.73
2023-03-15T01:54:45.744Z,11.07
2023-03-15T01:57:17.690Z,12.53
2023-03-15T01:59:51.125Z,12.60
2023-03-15T02:02:23.139Z,11.07
2023-03-15T02:04:56.479Z,10.70
2023-03-15T02:07:27.000Z,10.93
2023-03-15T02:10:02.441Z,12.27
2023-03-15T02:12:36.123Z,10.53
2023-03-15T02:15:08.556Z,9.60
2023-03-15T02:17:41.616Z,12.33
2023-03-15T02:20:19.932Z,9.57
2023-03-15T02:22:54.767Z,10.30
2023-03-15T02:25:31.868Z,12.00
2023-03-15T02:28:05.389Z,11.27
2023-03-15T02:30:34.993Z,12.00
2023-03-15T02:33:08.938Z,11.77
2023-03-15T02:35:37.598Z,10.87
2023-03-15T02:38:08.380Z,9.43
2023-03-15T02:40:36.887Z,13.50
2023-03-15T02:43:11.679Z,9.17
2023-03-15T02:45:41.010Z,11.20
2023-03-15T02:48:11.981Z,12.20
2023-03-15T02:50:40.906Z,12.87
2023-03-15T02:53:09.679Z,13.37
2023-03-15T02:55:38.147Z,11.47
2023-03-15T02:58:07.997Z,9.57
2023-03-15T03:00:39.410Z,11.20
2023-03-15T03:03:08.912Z,12.27
2023-03-15T03:05:39.620Z,13.10
2023-03-15T03:08:08.311Z,11.50
2023-03-15T03:10:37.838Z,10.57
2023-03-15T03:13:08.993Z,9.77
2023-03-15T03:15:40.112Z,9.57
2023-03-15T03:18:08.480Z,11.63
2023-03-15T03:20:36.866Z,10.63
2023-03-15T03:23:06.219Z,12.17
2023-03-15T03:25:36.725Z,10.13
2023-03-15T03:28:05.147Z,10.40
2023-03-15T03:30:36.577Z,10.73
2023-03-15T03:33:05.585Z,11.57
2023-03-15T03:35:34.160Z,12.03
2023-03-15T03:38:02.541Z,9.73
2023-03-15T03:40:36.485Z,10.43
2023-03-15T03:43:07.281Z,13.53
2023-03-15T03:45:37.391Z,10.47
2023-03-15T03:48:07.604Z,9.47
2023-03-15T03:50:36.588Z,11.47
2023-03-15T03:53:05.385Z,8.73
2023-03-15T03:55:36.352Z,8.23
2023-03-15T03:58:04.767Z,9.27
2023-03-15T04:00:42.826Z,9.60
2023-03-15T04:03:13.295Z,7.80
2023-03-15T04:05:46.722Z,8.73
2023-03-15T04:08:19.451Z,8.13
2023-03-15T04:10:51.586Z,9.27
2023-03-15T04:13:20.384Z,10.63
2023-03-15T04:15:50.534Z,11.40
2023-03-15T04:18:21.714Z,8.90
2023-03-15T04:20:54.707Z,8.80
2023-03-15T04:23:24.573Z,9.83
2023-03-15T04:26:14.265Z,10.37
2023-03-15T04:29:10.892Z,9.07
2023-03-15T04:32:19.229Z,9.37
2023-03-15T04:34:55.917Z,10.87
2023-03-15T04:37:34.282Z,11.47
2023-03-15T04:40:23.931Z,10.20
2023-03-15T04:43:10.658Z,11.47
2023-03-15T04:45:48.068Z,9.80
2023-03-15T04:48:47.967Z,11.30
2023-03-15T04:51:42.975Z,8.93
2023-03-15T04:54:20.839Z,8.80
2023-03-15T04:56:58.632Z,9.27
2023-03-15T04:59:47.369Z,9.93
2023-03-15T05:02:27.439Z,10.23
2023-03-15T05:05:17.594Z,11.37
2023-03-15T05:08:12.720Z,10.77
2023-03-15T05:10:59.629Z,11.03
2023-03-15T05:13:48.272Z,10.77
2023-03-15T05:16:35.049Z,11.43
2023-03-15T05:19:38.808Z,9.63
2023-03-15T05:22:29.031Z,8.47
2023-03-15T05:25:38.621Z,10.10
2023-03-15T05:28:07.222Z,9.30
2023-03-15T05:31:02.577Z,10.07
2023-03-15T05:33:49.911Z,11.60
2023-03-15T05:36:36.965Z,13.83
2023-03-15T05:39:25.251Z,11.67
2023-03-15T05:42:25.377Z,10.83
2023-03-15T05:44:53.795Z,11.40
2023-03-15T05:47:25.660Z,12.53
2023-03-15T05:50:13.375Z,13.10
2023-03-15T05:52:55.890Z,11.93
2023-03-15T05:55:38.650Z,13.17
2023-03-15T05:58:25.438Z,13.13
2023-03-15T06:01:12.522Z,10.80
2023-03-15T06:04:00.976Z,11.83
2023-03-15T06:06:33.798Z,11.90
2023-03-15T06:09:03.642Z,12.43
2023-03-15T06:11:33.470Z,12.23
2023-03-15T06:14:03.141Z,11.33
2023-03-15T06:16:50.811Z,9.97
2023-03-15T06:19:20.156Z,13.20
2023-03-15T06:21:52.602Z,11.77
2023-03-15T06:24:32.925Z,10.47
2023-03-15T06:27:03.514Z,11.93
2023-03-15T06:29:32.279Z,13.87
2023-03-15T06:32:00.923Z,10.00
2023-03-15T06:34:29.832Z,12.83
2023-03-15T06:36:58.261Z,14.53
2023-03-15T06:39:26.652Z,14.23
2023-03-15T06:41:58.488Z,14.10
2023-03-15T06:44:30.708Z,13.40
2023-03-15T09:41:55.850Z,11.03
2023-03-15T09:44:55.744Z,9.43
2023-03-15T09:48:01.250Z,8.63
2023-03-15T09:50:50.949Z,9.07
2023-03-15T09:53:56.942Z,9.87
2023-03-15T09:56:52.744Z,8.13
2023-03-15T09:59:38.151Z,9.17
2023-03-15T10:02:19.591Z,8.03
2023-03-15T10:05:03.949Z,8.90
2023-03-15T10:07:41.412Z,9.70
2023-03-15T10:10:28.516Z,7.40
2023-03-15T10:13:58.569Z,8.07
2023-03-15T10:16:40.686Z,9.53
2023-03-15T10:19:29.825Z,8.20
2023-03-15T10:22:03.429Z,8.87
2023-03-15T10:24:45.234Z,7.97
2023-03-15T10:27:24.477Z,8.27
2023-03-15T10:37:36.614Z,6.37
2023-03-15T10:40:58.612Z,8.27
2023-03-15T10:43:40.029Z,6.90
2023-03-15T10:46:14.142Z,5.50
2023-03-15T10:48:58.632Z,6.97
2023-03-15T10:51:29.851Z,6.97
2023-03-15T10:54:01.599Z,7.00
2023-03-15T10:56:36.389Z,5.80
2023-03-15T10:59:17.668Z,8.37
2023-03-15T11:01:49.379Z,8.10
2023-03-15T11:04:23.950Z,9.53
2023-03-15T11:07:03.209Z,8.60
2023-03-15T11:09:40.954Z,6.60
2023-03-15T11:12:10.849Z,8.87
2023-03-15T11:14:42.116Z,7.77
2023-03-15T11:17:18.082Z,8.27
2023-03-15T11:19:54.845Z,6.30
2023-03-15T11:22:26.560Z,6.30
2023-03-15T11:24:55.862Z,6.97
2023-03-15T11:27:27.201Z,5.87
2023-03-15T11:30:00.386Z,6.20
2023-03-15T11:32:33.123Z,7.53
2023-03-15T11:35:33.233Z,7.67
2023-03-15T11:38:15.292Z,7.43
2023-03-15T11:40:47.646Z,8.87
2023-03-15T11:43:22.080Z,8.80
2023-03-15T11:45:57.541Z,7.00
2023-03-15T11:48:44.337Z,5.63
2023-03-15T11:51:13.946Z,9.77
2023-03-15T11:53:46.417Z,7.27
2023-03-15T11:56:24.996Z,10.77
2023-03-15T11:59:08.728Z,7.10
2023-03-15T12:01:43.357Z,9.70
2023-03-15T12:04:51.022Z,8.53
2023-03-15T12:07:34.420Z,10.37
2023-03-15T12:10:35.373Z,7.20
2023-03-15T12:13:20.584Z,9.00
2023-03-15T12:15:50.721Z,8.30
2023-03-15T12:18:34.078Z,8.23
2023-03-15T12:21:19.183Z,9.80
2023-03-15T12:23:58.410Z,8.07
2023-03-15T12:26:33.608Z,9.43
2023-03-15T12:29:13.124Z,8.63
2023-03-15T12:31:53.938Z,9.63
2023-03-15T12:34:37.549Z,9.23
2023-03-15T12:37:10.028Z,10.67
2023-03-15T12:39:45.115Z,8.23
2023-03-15T12:42:32.111Z,6.80
2023-03-15T12:45:36.356Z,10.43
2023-03-15T12:48:59.333Z,10.17
2023-03-15T12:51:45.061Z,8.07
2023-03-15T12:54:17.050Z,8.63
2023-03-15T12:56:51.594Z,8.57
2023-03-15T12:59:34.318Z,7.07
2023-03-15T13:02:05.259Z,9.23
2023-03-15T13:04:33.926Z,6.50
2023-03-15T13:07:19.085Z,9.00
2023-03-15T13:10:09.246Z,7.60
2023-03-15T13:12:43.731Z,9.17
2023-03-15T13:15:18.545Z,8.37
2023-03-15T13:17:52.078Z,9.03
2023-03-15T13:20:38.626Z,8.20
2023-03-15T13:23:16.417Z,8.53
2023-03-15T13:25:55.770Z,10.33
2023-03-15T13:28:26.027Z,9.03
2023-03-15T13:30:56.456Z,8.27
2023-03-15T13:33:28.314Z,7.37
2023-03-15T13:36:01.132Z,9.80
2023-03-15T13:38:33.695Z,7.77
2023-03-15T13:41:04.793Z,7.37
2023-03-15T13:43:35.578Z,8.67
2023-03-15T13:46:04.661Z,11.20
2023-03-15T13:48:35.334Z,9.20
2023-03-15T13:51:07.445Z,7.07
2023-03-15T13:53:49.497Z,7.43
2023-03-15T13:56:21.071Z,8.57
2023-03-15T13:58:52.121Z,6.93
2023-03-15T14:01:23.219Z,9.17
2023-03-15T14:03:59.149Z,9.60
2023-03-15T14:06:29.129Z,7.60
2023-03-15T14:09:09.318Z,10.40
2023-03-15T14:11:40.768Z,8.80
2023-03-15T14:14:25.003Z,9.47
2023-03-15T14:17:04.805Z,8.17
2023-03-15T14:19:36.920Z,9.43
2023-03-15T14:22:15.593Z,9.20
2023-03-15T14:24:48.873Z,7.13
2023-03-15T14:27:20.926Z,10.80
2023-03-15T14:29:54.797Z,8.83
2023-03-15T14:32:29.868Z,10.00
2023-03-15T14:35:02.602Z,7.50
2023-03-15T14:37:36.606Z,7.30
2023-03-15T14:40:17.546Z,8.27
2023-03-15T14:42:46.474Z,8.53
2023-03-15T14:45:15.972Z,7.17
2023-03-15T14:47:55.995Z,7.00
2023-03-15T14:50:27.192Z,7.10
2023-03-15T14:52:57.373Z,6.20
2023-03-15T14:55:33.604Z,9.30
2023-03-15T14:58:02.584Z,6.57
2023-03-15T15:00:31.288Z,6.67
2023-03-15T15:03:00.511Z,7.53
2023-03-15T15:05:35.735Z,9.70
2023-03-15T15:08:13.031Z,8.20
2023-03-15T15:10:44.755Z,7.63
2023-03-15T15:13:18.225Z,9.27
2023-03-15T15:15:55.095Z,10.77
2023-03-15T15:18:25.878Z,8.77
2023-03-15T15:20:56.116Z,11.20
2023-03-15T15:23:27.992Z,14.13
2023-03-15T15:26:00.495Z,12.27
2023-03-15T15:28:36.620Z,10.97
2023-03-15T15:31:07.451Z,7.63
2023-03-15T15:33:38.783Z,6.83
2023-03-15T15:36:12.642Z,8.87
2023-03-15T15:38:41.400Z,7.03
2023-03-15T15:41:16.011Z,8.23
2023-03-15T15:43:44.936Z,6.30
2023-03-15T15:46:14.739Z,8.07
2023-03-15T15:48:43.434Z,7.27
2023-03-15T15:51:23.968Z,9.23
2023-03-15T15:53:52.522Z,9.63
2023-03-15T15:56:25.963Z,8.60
2023-03-15T15:58:54.674Z,10.83
2023-03-15T16:01:23.631Z,10.97
2023-03-15T16:03:52.229Z,10.77
2023-03-15T16:06:22.262Z,9.30
2023-03-15T16:08:59.123Z,11.27
2023-03-15T16:11:29.178Z,9.30
2023-03-15T16:13:57.819Z,9.10
2023-03-15T16:16:31.877Z,10.57
2023-03-15T16:19:25.774Z,8.43
2023-03-15T16:21:55.973Z,8.13
2023-03-15T16:24:28.759Z,9.97
2023-03-15T16:27:03.750Z,9.17
2023-03-15T16:29:42.382Z,6.77
2023-03-15T16:32:24.372Z,6.67
2023-03-15T16:34:59.720Z,8.00
2023-03-15T16:37:35.154Z,9.60
2023-03-15T16:40:06.312Z,7.97
2023-03-15T16:42:36.107Z,8.43
2023-03-15T16:45:29.499Z,11.30
2023-03-15T16:47:57.821Z,8.00
2023-03-15T16:50:26.323Z,8.10
2023-03-15T16:52:58.059Z,8.33
2023-03-15T16:55:29.197Z,8.50
2023-03-15T16:57:59.048Z,7.20
2023-03-15T17:00:28.024Z,9.37
2023-03-15T17:02:59.854Z,9.77
2023-03-15T17:05:28.582Z,8.77
2023-03-15T17:07:57.144Z,7.83
2023-03-15T17:10:27.804Z,11.20
2023-03-15T17:14:06.784Z,8.67
2023-03-15T17:16:37.221Z,8.00
2023-03-15T17:19:05.698Z,8.00
2023-03-15T17:21:36.737Z,9.03
2023-03-15T17:24:05.415Z,7.70
2023-03-15T17:26:34.621Z,5.90
2023-03-15T17:29:03.300Z,11.33
2023-03-15T17:31:34.504Z,7.60
2023-03-15T17:34:13.776Z,8.07
2023-03-15T17:36:42.412Z,9.77
2023-03-15T17:39:17.021Z,7.13
2023-03-15T17:41:52.579Z,6.43
2023-03-15T17:44:55.877Z,7.27
2023-03-15T17:47:42.646Z,8.17
2023-03-15T17:53:26.393Z,5.43
2023-03-15T17:55:55.229Z,7.10
2023-03-15T17:58:26.485Z,8.40
2023-03-15T18:01:22.238Z,6.50
2023-03-15T18:03:51.782Z,6.67
2023-03-15T18:06:28.630Z,9.00
2023-03-15T18:08:59.075Z,6.77
2023-03-15T18:11:31.877Z,7.13
2023-03-15T18:14:14.948Z,7.00
2023-03-15T18:16:43.978Z,7.10
2023-03-15T18:20:06.031Z,9.30
2023-03-15T18:22:34.663Z,8.30
2023-03-15T18:25:05.326Z,10.43
2023-03-15T18:27:42.853Z,8.23
2023-03-15T18:30:13.275Z,9.57
2023-03-15T18:32:41.861Z,7.93
2023-03-15T22:32:58.079Z,13.10
2023-03-15T22:35:27.297Z,12.40
2023-03-15T22:37:58.399Z,9.53
2023-03-15T22:40:28.837Z,10.83
2023-03-15T22:42:58.543Z,12.83
2023-03-15T22:45:27.867Z,8.83
2023-03-15T22:47:58.187Z,11.40
2023-03-15T22:50:27.769Z,10.73
2023-03-15T22:52:57.202Z,8.73
2023-03-15T22:55:26.118Z,11.03
2023-03-15T22:57:54.797Z,8.87
2023-03-15T23:00:24.964Z,9.17
2023-03-15T23:02:54.160Z,9.30
2023-03-15T23:05:25.054Z,9.27
2023-03-15T23:07:54.375Z,9.17
2023-03-15T23:10:26.563Z,12.03
2023-03-15T23:12:55.388Z,10.07
2023-03-15T23:15:24.826Z,9.47
2023-03-15T23:17:56.790Z,14.70
2023-03-15T23:20:29.945Z,10.13
2023-03-15T23:22:59.642Z,8.70
2023-03-15T23:25:29.743Z,11.90
2023-03-15T23:27:59.225Z,8.57
2023-03-15T23:30:35.096Z,13.57
2023-03-15T23:33:04.697Z,7.30
2023-03-15T23:35:35.325Z,11.70
2023-03-15T23:38:04.220Z,12.70
2023-03-15T23:40:33.560Z,11.07
2023-03-15T23:43:02.964Z,10.03
2023-03-15T23:45:32.183Z,12.63
2023-03-15T23:48:02.600Z,10.00
2023-03-15T23:50:31.715Z,11.90
2023-03-15T23:53:02.068Z,8.47
2023-03-15T23:55:31.263Z,9.57
2023-03-15T23:58:01.582Z,11.03
